createdAt,value
2023-05-04T00:00:00.577Z,74.28
2023-05-04T00:02:27.898Z,73.76
2023-05-04T00:04:55.514Z,73.70
2023-05-04T00:07:23.077Z,74.13
2023-05-04T00:09:51.159Z,74.72
2023-05-04T00:12:18.938Z,75.18
2023-05-04T00:14:46.058Z,76.12
2023-05-04T00:17:13.332Z,77.51
2023-05-04T00:19:42.447Z,76.92
2023-05-04T00:22:09.835Z,76.27
2023-05-04T00:24:37.088Z,76.02
2023-05-04T00:27:04.639Z,75.89
2023-05-04T00:29:32.154Z,76.33
2023-05-04T00:31:59.301Z,76.53
2023-05-04T00:34:27.058Z,78.03
2023-05-04T00:36:54.234Z,78.66
2023-05-04T00:39:22.876Z,78.05
2023-05-04T00:41:50.138Z,77.13
2023-05-04T00:44:17.565Z,77.18
2023-05-04T00:46:44.857Z,77.99
2023-05-04T00:49:13.274Z,78.71
2023-05-04T00:51:41.070Z,78.82
2023-05-04T00:54:08.160Z,79.82
2023-05-04T00:56:41.502Z,80.78
2023-05-04T00:59:08.605Z,80.50
2023-05-04T01:01:36.365Z,79.51
2023-05-04T01:04:04.390Z,79.82
2023-05-04T01:07:07.464Z,79.99
2023-05-04T01:09:34.867Z,81.23
2023-05-04T01:12:22.729Z,80.92
2023-05-04T01:14:53.990Z,82.01
2023-05-04T01:17:22.602Z,80.93
2023-05-04T01:19:51.342Z,80.81
2023-05-04T01:22:18.677Z,80.48
2023-05-04T01:24:46.176Z,81.33
2023-05-04T01:27:45.663Z,81.99
2023-05-04T01:30:45.883Z,82.23
2023-05-04T01:33:16.162Z,82.51
2023-05-04T01:35:43.517Z,80.41
2023-05-04T01:38:11.334Z,80.29
2023-05-04T01:40:39.988Z,80.37
2023-05-04T01:43:07.534Z,80.48
2023-05-04T01:45:34.933Z,81.95
2023-05-04T01:48:02.099Z,82.75
2023-05-04T01:50:29.466Z,81.38
2023-05-04T01:52:57.008Z,80.75
2023-05-04T01:55:24.157Z,80.41
2023-05-04T01:57:51.731Z,80.94
2023-05-04T02:00:19.091Z,81.08
2023-05-04T02:02:46.823Z,83.00
2023-05-04T02:05:17.561Z,84.05
2023-05-04T02:07:44.900Z,83.02
2023-05-04T02:10:12.646Z,80.74
2023-05-04T02:12:43.360Z,79.28
2023-05-04T02:15:10.919Z,79.93
2023-05-04T02:17:38.199Z,80.44
2023-05-04T02:20:06.677Z,81.49
2023-05-04T02:22:35.258Z,82.08
2023-05-04T02:25:02.476Z,79.89
2023-05-04T02:27:29.656Z,79.07
2023-05-04T02:29:58.620Z,79.36
2023-05-04T02:32:26.576Z,79.07
2023-05-04T02:34:54.348Z,79.24
2023-05-04T02:37:22.490Z,80.49
2023-05-04T02:39:49.891Z,81.42
2023-05-04T02:42:17.550Z,78.38
2023-05-04T02:44:44.819Z,77.96
2023-05-04T02:47:12.668Z,76.73
2023-05-04T02:49:39.791Z,77.01
2023-05-04T02:52:07.167Z,77.56
2023-05-04T02:54:34.809Z,78.19
2023-05-04T02:57:01.815Z,77.34
2023-05-04T02:59:28.989Z,76.01
2023-05-04T03:01:56.242Z,76.69
2023-05-04T03:04:23.571Z,75.97
2023-05-04T03:06:51.541Z,76.26
2023-05-04T03:09:19.350Z,76.92
2023-05-04T03:11:46.525Z,78.13
2023-05-04T03:14:13.686Z,80.16
2023-05-04T03:16:41.715Z,77.86
2023-05-04T03:19:09.254Z,76.46
2023-05-04T03:21:36.324Z,75.81
2023-05-04T03:24:04.574Z,75.92
2023-05-04T03:26:32.118Z,75.58
2023-05-04T03:28:59.150Z,76.19
2023-05-04T03:31:26.522Z,76.11
2023-05-04T03:33:53.942Z,78.22
2023-05-04T03:36:21.425Z,76.76
2023-05-04T03:38:49.312Z,75.66
2023-05-04T03:41:16.427Z,74.80
2023-05-04T03:43:43.709Z,75.07
2023-05-04T03:46:11.946Z,75.14
2023-05-04T03:48:40.313Z,75.65
2023-05-04T03:51:11.518Z,75.31
2023-05-04T03:53:38.812Z,76.43
2023-05-04T03:56:08.458Z,75.59
2023-05-04T03:58:35.513Z,75.28
2023-05-04T04:01:04.101Z,74.76
2023-05-04T04:03:31.805Z,74.72
2023-05-04T04:05:59.349Z,75.25
2023-05-04T04:08:26.975Z,75.57
2023-05-04T04:10:54.465Z,75.59
2023-05-04T04:13:21.945Z,75.97
2023-05-04T04:15:49.164Z,74.39
2023-05-04T04:18:16.469Z,72.88
2023-05-04T04:20:43.688Z,72.99
2023-05-04T04:23:11.080Z,72.57
2023-05-04T04:25:38.561Z,72.68
2023-05-04T04:28:05.608Z,73.32
2023-05-04T04:30:33.016Z,74.11
2023-05-04T04:33:00.115Z,75.18
2023-05-04T04:35:27.779Z,73.96
2023-05-04T04:37:55.387Z,72.73
2023-05-04T04:40:22.825Z,72.41
2023-05-04T04:42:49.806Z,71.95
2023-05-04T04:45:17.299Z,72.04
2023-05-04T04:47:45.355Z,71.95
2023-05-04T04:50:13.285Z,72.05
2023-05-04T04:52:41.622Z,73.06
2023-05-04T04:55:09.309Z,74.25
2023-05-04T04:57:36.406Z,73.30
2023-05-04T05:00:09.690Z,71.84
2023-05-04T05:02:37.108Z,71.00
2023-05-04T05:05:04.793Z,71.33
2023-05-04T05:07:33.105Z,72.32
2023-05-04T05:10:00.306Z,72.23
2023-05-04T05:12:27.396Z,71.74
2023-05-04T05:14:54.635Z,72.04
2023-05-04T05:17:21.810Z,73.42
2023-05-04T05:19:49.470Z,72.50
2023-05-04T05:22:16.941Z,70.81
2023-05-04T05:24:44.114Z,69.25
2023-05-04T05:27:11.185Z,66.97
2023-05-04T05:29:38.920Z,66.91
2023-05-04T05:32:06.331Z,67.42
2023-05-04T05:34:33.833Z,67.23
2023-05-04T05:37:01.070Z,67.06
2023-05-04T05:39:29.295Z,67.27
2023-05-04T05:41:58.405Z,67.28
2023-05-04T05:44:25.875Z,66.75
2023-05-04T05:46:52.900Z,65.46
2023-05-04T05:49:20.016Z,63.93
2023-05-04T05:51:47.622Z,61.45
2023-05-04T05:54:15.359Z,59.89
2023-05-04T05:56:42.577Z,60.01
2023-05-04T05:59:09.837Z,59.21
2023-05-04T06:01:37.081Z,59.38
2023-05-04T06:04:04.419Z,58.66
2023-05-04T06:06:31.910Z,58.56
2023-05-04T06:09:00.559Z,57.25
2023-05-04T06:11:27.721Z,56.80
2023-05-04T06:13:55.422Z,56.05
2023-05-04T06:16:25.540Z,56.24
2023-05-04T06:18:52.634Z,56.20
2023-05-04T06:21:19.936Z,55.85
2023-05-04T06:23:47.827Z,54.72
2023-05-04T06:26:14.955Z,53.77
2023-05-04T06:28:42.093Z,53.24
2023-05-04T06:31:09.303Z,53.39
2023-05-04T06:33:36.445Z,52.94
2023-05-04T06:36:03.834Z,52.44
2023-05-04T06:38:31.344Z,51.80
2023-05-04T06:40:58.496Z,51.36
2023-05-04T06:43:25.951Z,50.72
2023-05-04T06:45:53.348Z,50.25
2023-05-04T06:48:20.361Z,50.60
2023-05-04T06:50:47.649Z,50.56
2023-05-04T06:53:14.882Z,52.22
2023-05-04T06:55:42.282Z,52.77
2023-05-04T06:58:09.407Z,53.72
2023-05-04T07:00:37.120Z,54.22
2023-05-04T07:03:04.416Z,54.25
2023-05-04T07:05:37.145Z,54.17
2023-05-04T07:08:04.780Z,54.09
2023-05-04T07:10:32.798Z,54.24
2023-05-04T07:12:59.963Z,54.14
2023-05-04T07:15:27.437Z,54.14
2023-05-04T07:17:54.784Z,54.04
2023-05-04T07:20:25.038Z,53.85
2023-05-04T07:22:56.573Z,53.98
2023-05-04T07:25:25.139Z,53.83
2023-05-04T07:27:53.342Z,53.98
2023-05-04T07:30:21.621Z,54.06
2023-05-04T07:32:49.019Z,54.05
2023-05-04T07:35:16.574Z,54.22
2023-05-04T07:37:44.105Z,54.82
2023-05-04T07:40:11.963Z,54.71
2023-05-04T07:42:39.066Z,54.80
2023-05-04T07:45:08.624Z,55.07
2023-05-04T07:47:37.331Z,55.72
2023-05-04T07:50:05.334Z,55.59
2023-05-04T07:52:33.622Z,55.54
2023-05-04T07:55:00.900Z,55.62
2023-05-04T07:57:27.939Z,55.55
2023-05-04T07:59:56.274Z,56.13
2023-05-04T08:02:23.906Z,56.17
2023-05-04T08:04:51.452Z,55.83
2023-05-04T08:07:19.367Z,55.01
2023-05-04T08:09:46.712Z,54.71
2023-05-04T08:12:16.872Z,54.50
2023-05-04T08:14:47.864Z,54.29
2023-05-04T08:17:15.038Z,54.52
2023-05-04T08:19:42.067Z,54.18
2023-05-04T08:22:09.628Z,54.27
2023-05-04T08:24:36.616Z,54.65
2023-05-04T08:27:08.033Z,54.95
2023-05-04T08:29:37.583Z,54.85
2023-05-04T08:32:05.297Z,54.70
2023-05-04T08:34:32.798Z,54.54
2023-05-04T08:37:00.163Z,54.43
2023-05-04T08:39:27.143Z,54.37
2023-05-04T08:41:54.421Z,54.77
2023-05-04T08:44:22.033Z,54.88
2023-05-04T08:46:53.824Z,55.12
2023-05-04T08:49:21.700Z,54.84
2023-05-04T08:51:52.580Z,54.80
2023-05-04T08:54:21.627Z,55.10
2023-05-04T08:56:51.415Z,55.39
2023-05-04T08:59:23.397Z,55.66
2023-05-04T09:01:56.587Z,56.85
2023-05-04T09:04:26.455Z,57.54
2023-05-04T09:06:54.945Z,57.96
2023-05-04T09:09:22.583Z,57.96
2023-05-04T09:11:50.361Z,58.59
2023-05-04T09:14:17.331Z,58.44
2023-05-04T09:16:44.574Z,58.59
2023-05-04T09:19:19.891Z,58.86
2023-05-04T09:21:51.437Z,58.24
2023-05-04T09:24:28.698Z,58.09
2023-05-04T09:26:56.608Z,58.52
2023-05-04T09:29:25.839Z,58.35
2023-05-04T09:31:52.978Z,58.12
2023-05-04T09:34:21.613Z,57.92
2023-05-04T09:37:02.361Z,57.97
2023-05-04T09:39:30.676Z,58.17
2023-05-04T09:41:58.161Z,57.52
2023-05-04T09:44:27.487Z,57.47
2023-05-04T09:46:57.919Z,57.51
2023-05-04T09:49:32.901Z,57.67
2023-05-04T09:52:04.051Z,58.06
2023-05-04T09:54:35.031Z,58.23
2023-05-04T09:57:12.247Z,58.53
2023-05-04T09:59:40.004Z,59.01
2023-05-04T10:02:21.200Z,58.98
2023-05-04T10:04:57.502Z,59.56
2023-05-04T10:07:25.171Z,59.71
2023-05-04T10:09:53.403Z,59.86
2023-05-04T10:12:20.562Z,60.65
2023-05-04T10:14:47.675Z,60.62
2023-05-04T10:17:27.466Z,61.24
2023-05-04T10:20:07.816Z,62.16
2023-05-04T10:22:51.702Z,62.95
2023-05-04T10:25:22.663Z,63.96
2023-05-04T10:28:11.086Z,64.02
2023-05-04T10:30:40.255Z,64.35
2023-05-04T10:33:08.036Z,64.61
2023-05-04T10:35:35.482Z,65.04
2023-05-04T10:38:04.466Z,65.30
2023-05-04T10:40:39.745Z,65.86
2023-05-04T10:43:08.453Z,66.54
2023-05-04T10:45:40.162Z,67.79
2023-05-04T10:48:08.594Z,67.42
2023-05-04T10:50:44.014Z,67.03
2023-05-04T10:53:12.357Z,66.56
2023-05-04T10:55:41.807Z,65.98
2023-05-04T10:58:11.366Z,66.14
2023-05-04T11:00:40.532Z,66.30
2023-05-04T11:03:08.325Z,66.83
2023-05-04T11:05:43.432Z,66.78
2023-05-04T11:08:22.353Z,66.54
2023-05-04T11:11:01.630Z,66.03
2023-05-04T11:13:35.179Z,66.59
2023-05-04T11:16:02.633Z,66.38
2023-05-04T11:18:31.824Z,67.15
2023-05-04T11:20:59.030Z,66.78
2023-05-04T11:23:26.586Z,66.62
2023-05-04T11:25:55.226Z,65.21
2023-05-04T11:28:43.273Z,64.93
2023-05-04T11:31:14.509Z,65.20
2023-05-04T11:33:48.976Z,65.56
2023-05-04T11:36:16.699Z,65.09
2023-05-04T11:38:43.984Z,66.37
2023-05-04T11:41:15.253Z,66.02
2023-05-04T11:43:44.161Z,66.80
2023-05-04T11:46:11.856Z,66.32
2023-05-04T11:48:40.006Z,66.52
2023-05-04T11:51:07.656Z,66.50
2023-05-04T11:53:39.229Z,66.84
2023-05-04T11:56:08.860Z,66.75
2023-05-04T11:58:36.873Z,66.54
2023-05-04T12:01:04.541Z,67.33
2023-05-04T12:03:50.979Z,66.35
2023-05-04T12:06:31.426Z,64.57
2023-05-04T12:09:04.698Z,64.37
2023-05-04T12:11:32.094Z,65.26
2023-05-04T12:14:02.316Z,65.66
2023-05-04T12:16:29.497Z,66.12
2023-05-04T12:19:08.433Z,65.99
2023-05-04T12:21:36.444Z,66.18
2023-05-04T12:24:04.069Z,66.38
2023-05-04T12:26:31.419Z,66.87
2023-05-04T12:28:58.746Z,67.37
2023-05-04T12:31:26.369Z,67.83
2023-05-04T12:33:53.657Z,68.02
2023-05-04T12:36:21.700Z,68.47
2023-05-04T12:38:48.935Z,67.01
2023-05-04T12:41:16.274Z,64.86
2023-05-04T12:43:43.294Z,63.61
2023-05-04T12:46:10.673Z,63.61
2023-05-04T12:48:38.037Z,64.13
2023-05-04T12:51:05.291Z,64.02
2023-05-04T12:53:32.686Z,64.20
2023-05-04T12:56:01.447Z,64.72
2023-05-04T12:58:28.856Z,65.51
2023-05-04T13:00:58.105Z,66.01
2023-05-04T13:03:25.537Z,65.97
2023-05-04T13:05:52.947Z,65.99
2023-05-04T13:08:20.118Z,65.81
2023-05-04T13:10:47.490Z,66.73
2023-05-04T13:13:17.341Z,67.00
2023-05-04T13:15:45.084Z,65.68
2023-05-04T13:18:13.408Z,64.93
2023-05-04T13:20:41.045Z,64.56
2023-05-04T13:23:08.423Z,63.53
2023-05-04T13:25:35.679Z,64.02
2023-05-04T13:28:03.573Z,64.27
2023-05-04T13:30:31.207Z,64.89
2023-05-04T13:32:58.617Z,64.95
2023-05-04T13:35:25.709Z,65.48
2023-05-04T13:37:53.105Z,66.56
2023-05-04T13:40:20.724Z,67.11
2023-05-04T13:42:48.434Z,67.41
2023-05-04T13:45:15.807Z,67.74
2023-05-04T13:47:43.571Z,68.17
2023-05-04T13:50:10.802Z,67.16
2023-05-04T13:52:38.665Z,65.62
2023-05-04T13:55:06.335Z,65.71
2023-05-04T13:57:33.575Z,66.00
2023-05-04T14:00:07.618Z,66.29
2023-05-04T14:02:38.853Z,66.48
2023-05-04T14:05:08.203Z,66.76
2023-05-04T14:07:35.665Z,67.42
2023-05-04T14:10:03.938Z,67.59
2023-05-04T14:12:31.454Z,68.42
2023-05-04T14:14:59.287Z,68.93
2023-05-04T14:17:26.608Z,68.84
2023-05-04T14:19:53.905Z,67.35
2023-05-04T14:22:21.522Z,66.71
2023-05-04T14:24:50.208Z,66.28
2023-05-04T14:27:17.713Z,66.71
2023-05-04T14:29:47.146Z,67.67
2023-05-04T14:32:15.665Z,68.45
2023-05-04T14:34:42.916Z,69.12
2023-05-04T14:37:10.766Z,69.53
2023-05-04T14:39:39.560Z,69.81
2023-05-04T14:42:07.045Z,69.27
2023-05-04T14:44:34.515Z,68.19
2023-05-04T14:47:06.084Z,67.37
2023-05-04T14:49:37.676Z,67.44
2023-05-04T14:52:05.445Z,67.35
2023-05-04T14:54:32.735Z,67.80
2023-05-04T14:57:00.409Z,68.10
2023-05-04T14:59:27.978Z,68.60
2023-05-04T15:01:55.738Z,69.03
2023-05-04T15:04:23.151Z,69.71
2023-05-04T15:06:50.491Z,68.71
2023-05-04T15:09:17.615Z,67.30
2023-05-04T15:11:44.965Z,67.00
2023-05-04T15:14:12.217Z,66.74
2023-05-04T15:16:39.231Z,67.67
2023-05-04T15:19:07.185Z,68.67
2023-05-04T15:21:34.510Z,69.02
2023-05-04T15:24:02.187Z,69.00
2023-05-04T15:26:31.171Z,69.10
2023-05-04T15:28:58.755Z,69.48
2023-05-04T15:31:26.068Z,70.23
2023-05-04T15:33:53.999Z,69.24
2023-05-04T15:36:21.260Z,67.83
2023-05-04T15:38:48.269Z,67.20
2023-05-04T15:41:16.082Z,67.37
2023-05-04T15:43:43.344Z,67.93
2023-05-04T15:46:10.479Z,68.24
2023-05-04T15:48:37.721Z,68.15
2023-05-04T15:51:11.044Z,68.51
2023-05-04T15:53:38.904Z,69.26
2023-05-04T15:56:06.481Z,69.10
2023-05-04T15:58:34.128Z,69.52
2023-05-04T16:01:04.152Z,68.89
2023-05-04T16:03:32.276Z,67.53
2023-05-04T16:06:00.064Z,66.70
2023-05-04T16:08:27.817Z,66.68
2023-05-04T16:10:55.878Z,66.89
2023-05-04T16:13:23.296Z,67.13
2023-05-04T16:15:54.056Z,67.29
2023-05-04T16:18:21.260Z,67.82
2023-05-04T16:20:48.903Z,68.12
2023-05-04T16:23:17.837Z,68.16
2023-05-04T16:25:44.912Z,68.36
2023-05-04T16:28:12.668Z,68.29
2023-05-04T16:30:42.476Z,68.11
2023-05-04T16:33:09.701Z,68.26
2023-05-04T16:35:37.766Z,67.21
2023-05-04T16:38:05.941Z,66.20
2023-05-04T16:40:33.108Z,65.62
2023-05-04T16:43:00.487Z,65.35
2023-05-04T16:45:31.428Z,65.22
2023-05-04T16:47:59.001Z,65.59
2023-05-04T16:50:26.257Z,66.02
2023-05-04T16:52:53.585Z,66.41
2023-05-04T16:55:21.174Z,66.68
2023-05-04T16:57:48.930Z,66.71
2023-05-04T17:00:17.163Z,66.99
2023-05-04T17:02:44.301Z,67.50
2023-05-04T17:05:11.971Z,67.49
2023-05-04T17:07:43.579Z,67.66
2023-05-04T17:10:10.923Z,68.53
2023-05-04T17:12:38.869Z,68.00
2023-05-04T17:15:06.750Z,65.97
2023-05-04T17:17:33.824Z,65.21
2023-05-04T17:20:01.156Z,65.62
2023-05-04T17:22:28.644Z,66.42
2023-05-04T17:24:55.699Z,67.00
2023-05-04T17:27:23.625Z,67.36
2023-05-04T17:29:51.282Z,67.90
2023-05-04T17:32:18.458Z,68.32
2023-05-04T17:34:45.916Z,68.59
2023-05-04T17:37:13.070Z,68.87
2023-05-04T17:39:40.188Z,69.23
2023-05-04T17:42:07.686Z,69.16
2023-05-04T17:44:35.012Z,68.11
2023-05-04T17:47:02.115Z,67.26
2023-05-04T17:49:29.600Z,66.54
2023-05-04T17:51:56.892Z,67.12
2023-05-04T17:54:24.020Z,67.56
2023-05-04T17:56:51.247Z,68.22
2023-05-04T17:59:18.737Z,68.62
2023-05-04T18:01:46.280Z,68.98
2023-05-04T18:04:13.455Z,69.60
2023-05-04T18:06:40.713Z,69.67
2023-05-04T18:09:07.824Z,68.86
2023-05-04T18:11:35.232Z,67.91
2023-05-04T18:14:02.744Z,66.62
2023-05-04T18:16:29.934Z,67.81
2023-05-04T18:18:58.389Z,66.90
2023-05-04T18:21:26.281Z,66.13
2023-05-04T18:23:53.443Z,65.90
2023-05-04T18:26:22.952Z,66.22
2023-05-04T18:28:50.598Z,66.02
2023-05-04T18:31:17.784Z,66.40
2023-05-04T18:33:45.518Z,66.76
2023-05-04T18:36:13.088Z,66.96
2023-05-04T18:38:41.047Z,66.58
2023-05-04T18:41:08.079Z,66.83
2023-05-04T18:43:35.549Z,67.17
2023-05-04T18:46:08.916Z,67.01
2023-05-04T18:48:36.764Z,67.00
2023-05-04T18:51:04.317Z,67.63
2023-05-04T18:53:31.626Z,68.18
2023-05-04T18:56:07.015Z,66.87
2023-05-04T18:58:35.907Z,65.77
2023-05-04T19:01:08.657Z,65.51
2023-05-04T19:03:35.735Z,65.45
2023-05-04T19:06:03.260Z,66.24
2023-05-04T19:08:30.338Z,66.45
2023-05-04T19:11:03.080Z,66.43
2023-05-04T19:13:31.617Z,66.57
2023-05-04T19:15:58.819Z,66.59
2023-05-04T19:18:25.924Z,66.42
2023-05-04T19:20:54.746Z,66.05
2023-05-04T19:23:21.876Z,65.69
2023-05-04T19:25:49.178Z,65.21
2023-05-04T19:28:16.463Z,64.96
2023-05-04T19:30:43.624Z,64.78
2023-05-04T19:33:10.722Z,64.25
2023-05-04T19:35:37.977Z,63.50
2023-05-04T19:49:54.657Z,61.46
2023-05-04T19:52:21.904Z,61.33
2023-05-04T19:54:53.785Z,61.19
2023-05-04T19:57:21.723Z,61.07
2023-05-04T19:59:49.037Z,61.14
2023-05-04T20:02:16.112Z,61.13
2023-05-04T20:04:43.435Z,61.17
2023-05-04T20:07:10.837Z,61.30
2023-05-04T20:09:41.128Z,61.27
2023-05-04T20:12:08.632Z,61.47
2023-05-04T20:14:36.244Z,61.92
2023-05-04T20:17:04.061Z,61.82
2023-05-04T20:19:31.336Z,61.69
2023-05-04T20:21:59.016Z,61.80
2023-05-04T20:24:26.892Z,61.91
2023-05-04T20:26:54.280Z,62.03
2023-05-04T20:29:22.046Z,61.71
2023-05-04T20:31:49.369Z,62.02
2023-05-04T20:34:18.794Z,62.39
2023-05-04T20:36:47.165Z,62.45
2023-05-04T20:39:14.343Z,62.55
2023-05-04T20:41:41.537Z,62.52
2023-05-04T20:44:08.940Z,62.77
2023-05-04T20:46:36.182Z,62.81
2023-05-04T20:49:04.012Z,62.81
2023-05-04T20:51:31.682Z,62.71
2023-05-04T20:53:58.869Z,62.60
2023-05-04T20:56:26.508Z,62.79
2023-05-04T20:58:53.735Z,63.00
2023-05-04T21:01:21.637Z,62.87
2023-05-04T21:03:48.945Z,62.95
2023-05-04T21:06:16.312Z,63.16
2023-05-04T21:08:43.419Z,63.26
2023-05-04T21:11:10.538Z,63.36
2023-05-04T21:13:37.771Z,63.28
2023-05-04T21:16:05.517Z,63.46
2023-05-04T21:18:32.510Z,63.56
2023-05-04T21:20:59.725Z,63.76
2023-05-04T21:23:27.266Z,63.91
2023-05-04T21:26:02.538Z,64.15
2023-05-04T21:28:30.838Z,64.62
2023-05-04T21:30:59.015Z,64.86
2023-05-04T21:33:26.448Z,65.26
2023-05-04T21:35:53.802Z,65.32
2023-05-04T21:38:22.219Z,65.69
2023-05-04T21:40:49.780Z,66.10
2023-05-04T21:43:17.138Z,66.89
2023-05-04T21:45:44.521Z,67.89
2023-05-04T21:48:11.844Z,67.70
2023-05-04T21:50:39.751Z,66.23
2023-05-04T21:53:06.959Z,65.38
2023-05-04T21:56:56.528Z,64.92
2023-05-04T21:59:24.296Z,65.28
2023-05-04T22:01:51.410Z,65.71
2023-05-04T22:04:18.926Z,66.86
2023-05-04T22:06:47.775Z,66.90
2023-05-04T22:09:16.035Z,67.95
2023-05-04T22:11:43.129Z,68.70
2023-05-04T22:14:10.907Z,69.08
2023-05-04T22:16:38.034Z,68.88
2023-05-04T22:19:05.157Z,70.33
2023-05-04T22:21:33.149Z,70.02
2023-05-04T22:24:00.594Z,68.84
2023-05-04T22:26:27.744Z,68.02
2023-05-04T22:28:55.116Z,67.31
2023-05-04T22:31:22.468Z,66.63
2023-05-04T22:33:49.608Z,66.86
2023-05-04T22:36:17.073Z,66.93
2023-05-04T22:38:44.230Z,66.85
2023-05-04T22:41:13.617Z,66.81
2023-05-04T22:43:41.415Z,67.08
2023-05-04T22:46:14.763Z,66.43
2023-05-04T22:48:42.413Z,66.57
2023-05-04T22:51:09.482Z,67.02
2023-05-04T22:53:36.671Z,67.73
2023-05-04T22:56:03.874Z,69.30
2023-05-04T22:58:30.950Z,69.19
2023-05-04T23:00:58.106Z,67.98
2023-05-04T23:03:25.562Z,68.00
2023-05-04T23:05:52.850Z,67.68
2023-05-04T23:08:20.450Z,67.54
2023-05-04T23:10:47.819Z,67.74
2023-05-04T23:13:14.921Z,68.06
2023-05-04T23:15:42.439Z,67.91
2023-05-04T23:18:10.640Z,68.36
2023-05-04T23:20:37.816Z,67.98
2023-05-04T23:23:04.998Z,68.19
2023-05-04T23:25:32.163Z,69.11
2023-05-04T23:27:59.169Z,70.54
2023-05-04T23:30:26.608Z,70.64
2023-05-04T23:32:53.719Z,70.21
2023-05-04T23:35:21.149Z,69.58
2023-05-04T23:37:48.377Z,69.77
2023-05-04T23:40:15.927Z,70.27
2023-05-04T23:42:43.006Z,70.50
2023-05-04T23:45:10.763Z,70.50
2023-05-04T23:47:38.255Z,70.63
2023-05-04T23:50:06.455Z,70.86
2023-05-04T23:52:34.036Z,72.67
2023-05-04T23:55:01.185Z,72.13
2023-05-04T23:57:28.276Z,71.72
2023-05-04T23:59:55.338Z,71.12
